sensor_id;sensor_type;location;lat;lon;timestamp;P1;durP1;ratioP1;P2;durP2;ratioP2
14738;SDS011;7461;52.440;13.540;2023-01-09T00:00:50;19.70;;;18.30;;
14738;SDS011;7461;52.440;13.540;2023-01-09T00:03:18;20.88;;;19.23;;
14738;SDS011;7461;52.440;13.540;2023-01-09T00:05:45;18.27;;;16.77;;
14738;SDS011;7461;52.440;13.540;2023-01-09T00:08:14;21.90;;;20.27;;
14738;SDS011;7461;52.440;13.540;2023-01-09T00:10:42;21.45;;;19.55;;
14738;SDS011;7461;52.440;13.540;2023-01-09T00:13:10;20.20;;;18.77;;
14738;SDS011;7461;52.440;13.540;2023-01-09T00:15:37;20.80;;;19.13;;
14738;SDS011;7461;52.440;13.540;2023-01-09T00:18:05;19.42;;;17.95;;
14738;SDS011;7461;52.440;13.540;2023-01-09T00:20:32;19.88;;;18.45;;
14738;SDS011;7461;52.440;13.540;2023-01-09T00:22:59;21.05;;;19.55;;
14738;SDS011;7461;52.440;13.540;2023-01-09T00:25:28;20.52;;;18.75;;
14738;SDS011;7461;52.440;13.540;2023-01-09T00:27:55;19.92;;;18.45;;
14738;SDS011;7461;52.440;13.540;2023-01-09T00:30:22;21.00;;;19.30;;
14738;SDS011;7461;52.440;13.540;2023-01-09T00:32:49;20.95;;;19.17;;
14738;SDS011;7461;52.440;13.540;2023-01-09T00:35:17;20.08;;;18.48;;
14738;SDS011;7461;52.440;13.540;2023-01-09T00:37:44;23.38;;;21.60;;
14738;SDS011;7461;52.440;13.540;2023-01-09T00:40:13;21.80;;;20.10;;
14738;SDS011;7461;52.440;13.540;2023-01-09T00:42:42;22.48;;;20.65;;
14738;SDS011;7461;52.440;13.540;2023-01-09T00:45:13;20.85;;;19.23;;
14738;SDS011;7461;52.440;13.540;2023-01-09T00:47:43;22.52;;;20.42;;
14738;SDS011;7461;52.440;13.540;2023-01-09T00:50:12;21.38;;;19.75;;
14738;SDS011;7461;52.440;13.540;2023-01-09T00:52:41;20.38;;;18.88;;
14738;SDS011;7461;52.440;13.540;2023-01-09T00:55:08;20.48;;;18.88;;
14738;SDS011;7461;52.440;13.540;2023-01-09T00:57:36;21.67;;;19.92;;
14738;SDS011;7461;52.440;13.540;2023-01-09T01:00:05;22.30;;;20.48;;
14738;SDS011;7461;52.440;13.540;2023-01-09T01:02:33;21.27;;;19.67;;
14738;SDS011;7461;52.440;13.540;2023-01-09T01:05:00;27.63;;;25.33;;
14738;SDS011;7461;52.440;13.540;2023-01-09T01:07:45;26.33;;;24.25;;
14738;SDS011;7461;52.440;13.540;2023-01-09T01:10:13;24.05;;;22.05;;
14738;SDS011;7461;52.440;13.540;2023-01-09T01:12:42;22.00;;;20.20;;
14738;SDS011;7461;52.440;13.540;2023-01-09T01:15:11;20.98;;;19.27;;
14738;SDS011;7461;52.440;13.540;2023-01-09T01:17:38;24.08;;;22.20;;
14738;SDS011;7461;52.440;13.540;2023-01-09T01:20:07;21.92;;;20.23;;
14738;SDS011;7461;52.440;13.540;2023-01-09T01:22:35;21.67;;;19.98;;
14738;SDS011;7461;52.440;13.540;2023-01-09T01:25:02;23.90;;;21.90;;
14738;SDS011;7461;52.440;13.540;2023-01-09T01:27:30;23.42;;;21.60;;
14738;SDS011;7461;52.440;13.540;2023-01-09T01:29:57;22.35;;;20.55;;
14738;SDS011;7461;52.440;13.540;2023-01-09T01:32:25;22.75;;;21.15;;
14738;SDS011;7461;52.440;13.540;2023-01-09T01:34:53;22.38;;;20.67;;
14738;SDS011;7461;52.440;13.540;2023-01-09T01:37:20;22.67;;;20.98;;
14738;SDS011;7461;52.440;13.540;2023-01-09T01:39:48;24.50;;;22.60;;
14738;SDS011;7461;52.440;13.540;2023-01-09T01:42:17;23.20;;;21.30;;
14738;SDS011;7461;52.440;13.540;2023-01-09T01:44:58;23.10;;;21.30;;
14738;SDS011;7461;52.440;13.540;2023-01-09T01:47:32;22.27;;;20.45;;
14738;SDS011;7461;52.440;13.540;2023-01-09T01:50:01;22.83;;;21.10;;
14738;SDS011;7461;52.440;13.540;2023-01-09T01:52:28;22.15;;;20.45;;
14738;SDS011;7461;52.440;13.540;2023-01-09T01:54:56;21.80;;;20.05;;
14738;SDS011;7461;52.440;13.540;2023-01-09T01:57:23;21.77;;;20.08;;
14738;SDS011;7461;52.440;13.540;2023-01-09T01:59:52;23.63;;;21.58;;
14738;SDS011;7461;52.440;13.540;2023-01-09T02:02:20;23.67;;;21.55;;
14738;SDS011;7461;52.440;13.540;2023-01-09T02:04:49;24.45;;;22.52;;
14738;SDS011;7461;52.440;13.540;2023-01-09T02:07:18;22.50;;;20.60;;
14738;SDS011;7461;52.440;13.540;2023-01-09T02:09:45;24.60;;;22.55;;
14738;SDS011;7461;52.440;13.540;2023-01-09T02:12:13;23.45;;;21.65;;
14738;SDS011;7461;52.440;13.540;2023-01-09T02:14:41;24.50;;;22.63;;
14738;SDS011;7461;52.440;13.540;2023-01-09T02:17:09;25.02;;;22.95;;
14738;SDS011;7461;52.440;13.540;2023-01-09T02:19:48;22.15;;;20.45;;
14738;SDS011;7461;52.440;13.540;2023-01-09T02:22:24;25.70;;;23.55;;
14738;SDS011;7461;52.440;13.540;2023-01-09T02:24:58;23.92;;;22.13;;
14738;SDS011;7461;52.440;13.540;2023-01-09T02:27:41;24.27;;;22.38;;
14738;SDS011;7461;52.440;13.540;2023-01-09T02:30:25;23.13;;;21.13;;
14738;SDS011;7461;52.440;13.540;2023-01-09T02:32:59;22.25;;;20.55;;
14738;SDS011;7461;52.440;13.540;2023-01-09T02:35:41;24.88;;;22.75;;
14738;SDS011;7461;52.440;13.540;2023-01-09T02:38:13;22.90;;;21.02;;
14738;SDS011;7461;52.440;13.540;2023-01-09T02:40:45;25.45;;;23.33;;
14738;SDS011;7461;52.440;13.540;2023-01-09T02:43:14;22.90;;;21.00;;
14738;SDS011;7461;52.440;13.540;2023-01-09T02:45:43;24.63;;;22.70;;
14738;SDS011;7461;52.440;13.540;2023-01-09T02:48:10;23.90;;;21.85;;
14738;SDS011;7461;52.440;13.540;2023-01-09T02:50:38;23.60;;;21.70;;
14738;SDS011;7461;52.440;13.540;2023-01-09T02:53:12;24.00;;;21.92;;
14738;SDS011;7461;52.440;13.540;2023-01-09T02:55:50;24.33;;;22.42;;
14738;SDS011;7461;52.440;13.540;2023-01-09T02:58:22;21.80;;;20.00;;
14738;SDS011;7461;52.440;13.540;2023-01-09T03:00:56;24.50;;;22.52;;
14738;SDS011;7461;52.440;13.540;2023-01-09T03:03:28;24.63;;;22.55;;
14738;SDS011;7461;52.440;13.540;2023-01-09T03:05:59;25.02;;;22.92;;
14738;SDS011;7461;52.440;13.540;2023-01-09T03:08:32;26.13;;;23.85;;
14738;SDS011;7461;52.440;13.540;2023-01-09T03:11:01;24.30;;;22.20;;
14738;SDS011;7461;52.440;13.540;2023-01-09T03:13:31;25.17;;;23.27;;
14738;SDS011;7461;52.440;13.540;2023-01-09T03:16:02;23.60;;;21.52;;
14738;SDS011;7461;52.440;13.540;2023-01-09T03:18:31;25.33;;;23.27;;
14738;SDS011;7461;52.440;13.540;2023-01-09T03:21:00;23.65;;;21.58;;
14738;SDS011;7461;52.440;13.540;2023-01-09T03:23:39;25.73;;;23.70;;
14738;SDS011;7461;52.440;13.540;2023-01-09T03:26:10;25.10;;;23.30;;
14738;SDS011;7461;52.440;13.540;2023-01-09T03:28:37;23.77;;;21.83;;
14738;SDS011;7461;52.440;13.540;2023-01-09T03:31:06;26.60;;;24.40;;
14738;SDS011;7461;52.440;13.540;2023-01-09T03:33:33;24.17;;;22.25;;
14738;SDS011;7461;52.440;13.540;2023-01-09T03:36:00;26.25;;;24.20;;
14738;SDS011;7461;52.440;13.540;2023-01-09T03:38:28;27.58;;;25.40;;
14738;SDS011;7461;52.440;13.540;2023-01-09T03:40:55;26.58;;;24.38;;
14738;SDS011;7461;52.440;13.540;2023-01-09T03:43:22;26.23;;;24.13;;
14738;SDS011;7461;52.440;13.540;2023-01-09T03:45:50;27.65;;;25.42;;
14738;SDS011;7461;52.440;13.540;2023-01-09T03:48:18;26.83;;;24.52;;
14738;SDS011;7461;52.440;13.540;2023-01-09T03:50:46;26.80;;;24.60;;
14738;SDS011;7461;52.440;13.540;2023-01-09T03:53:14;28.15;;;25.80;;
14738;SDS011;7461;52.440;13.540;2023-01-09T03:55:42;27.63;;;25.40;;
14738;SDS011;7461;52.440;13.540;2023-01-09T03:58:09;26.27;;;24.15;;
14738;SDS011;7461;52.440;13.540;2023-01-09T04:00:37;25.70;;;23.60;;
14738;SDS011;7461;52.440;13.540;2023-01-09T04:03:04;25.05;;;23.05;;
14738;SDS011;7461;52.440;13.540;2023-01-09T04:05:33;27.88;;;25.73;;
14738;SDS011;7461;52.440;13.540;2023-01-09T04:08:00;28.80;;;26.40;;
14738;SDS011;7461;52.440;13.540;2023-01-09T04:10:27;29.85;;;27.35;;
14738;SDS011;7461;52.440;13.540;2023-01-09T04:12:55;26.98;;;24.73;;
14738;SDS011;7461;52.440;13.540;2023-01-09T04:15:22;26.52;;;24.33;;
14738;SDS011;7461;52.440;13.540;2023-01-09T04:17:49;25.67;;;23.35;;
14738;SDS011;7461;52.440;13.540;2023-01-09T04:20:17;29.10;;;26.70;;
14738;SDS011;7461;52.440;13.540;2023-01-09T04:22:45;27.10;;;24.85;;
14738;SDS011;7461;52.440;13.540;2023-01-09T04:25:13;27.25;;;24.90;;
14738;SDS011;7461;52.440;13.540;2023-01-09T04:27:40;27.42;;;25.25;;
14738;SDS011;7461;52.440;13.540;2023-01-09T04:30:07;25.35;;;23.50;;
14738;SDS011;7461;52.440;13.540;2023-01-09T04:32:35;25.60;;;23.63;;
14738;SDS011;7461;52.440;13.540;2023-01-09T04:35:02;27.33;;;25.15;;
14738;SDS011;7461;52.440;13.540;2023-01-09T04:37:29;24.58;;;22.77;;
14738;SDS011;7461;52.440;13.540;2023-01-09T04:39:58;27.88;;;25.25;;
14738;SDS011;7461;52.440;13.540;2023-01-09T04:42:25;26.17;;;24.10;;
14738;SDS011;7461;52.440;13.540;2023-01-09T04:44:52;27.10;;;25.05;;
14738;SDS011;7461;52.440;13.540;2023-01-09T04:47:19;27.80;;;25.70;;
14738;SDS011;7461;52.440;13.540;2023-01-09T04:49:47;26.27;;;24.17;;
14738;SDS011;7461;52.440;13.540;2023-01-09T04:52:15;25.23;;;23.27;;
14738;SDS011;7461;52.440;13.540;2023-01-09T04:54:42;27.80;;;25.60;;
14738;SDS011;7461;52.440;13.540;2023-01-09T04:57:10;27.40;;;25.17;;
14738;SDS011;7461;52.440;13.540;2023-01-09T04:59:37;26.83;;;24.20;;
14738;SDS011;7461;52.440;13.540;2023-01-09T05:02:05;27.67;;;25.15;;
14738;SDS011;7461;52.440;13.540;2023-01-09T05:04:32;24.38;;;22.58;;
14738;SDS011;7461;52.440;13.540;2023-01-09T05:07:00;23.27;;;21.52;;
14738;SDS011;7461;52.440;13.540;2023-01-09T05:09:27;26.70;;;24.63;;
14738;SDS011;7461;52.440;13.540;2023-01-09T05:11:54;24.95;;;23.10;;
14738;SDS011;7461;52.440;13.540;2023-01-09T05:14:23;25.85;;;23.85;;
14738;SDS011;7461;52.440;13.540;2023-01-09T05:16:50;23.67;;;21.83;;
14738;SDS011;7461;52.440;13.540;2023-01-09T05:19:17;25.90;;;23.70;;
14738;SDS011;7461;52.440;13.540;2023-01-09T05:21:45;24.30;;;22.40;;
14738;SDS011;7461;52.440;13.540;2023-01-09T05:24:12;25.17;;;23.23;;
14738;SDS011;7461;52.440;13.540;2023-01-09T05:26:40;26.40;;;24.17;;
14738;SDS011;7461;52.440;13.540;2023-01-09T05:29:08;25.90;;;23.70;;
14738;SDS011;7461;52.440;13.540;2023-01-09T05:31:37;24.65;;;22.70;;
14738;SDS011;7461;52.440;13.540;2023-01-09T05:34:04;24.20;;;22.17;;
14738;SDS011;7461;52.440;13.540;2023-01-09T05:36:31;24.60;;;22.60;;
14738;SDS011;7461;52.440;13.540;2023-01-09T05:38:58;24.90;;;22.70;;
14738;SDS011;7461;52.440;13.540;2023-01-09T05:41:26;23.77;;;21.83;;
14738;SDS011;7461;52.440;13.540;2023-01-09T05:43:53;25.23;;;22.90;;
14738;SDS011;7461;52.440;13.540;2023-01-09T05:46:21;25.05;;;23.15;;
14738;SDS011;7461;52.440;13.540;2023-01-09T05:48:49;24.88;;;22.70;;
14738;SDS011;7461;52.440;13.540;2023-01-09T05:51:16;25.30;;;23.30;;
14738;SDS011;7461;52.440;13.540;2023-01-09T05:53:44;25.55;;;23.15;;
14738;SDS011;7461;52.440;13.540;2023-01-09T05:56:11;27.30;;;24.98;;
14738;SDS011;7461;52.440;13.540;2023-01-09T05:58:38;25.88;;;23.67;;
14738;SDS011;7461;52.440;13.540;2023-01-09T06:01:06;25.60;;;23.00;;
14738;SDS011;7461;52.440;13.540;2023-01-09T06:03:33;26.35;;;24.15;;
14738;SDS011;7461;52.440;13.540;2023-01-09T06:06:02;26.17;;;23.88;;
14738;SDS011;7461;52.440;13.540;2023-01-09T06:08:29;26.10;;;24.00;;
14738;SDS011;7461;52.440;13.540;2023-01-09T06:10:56;26.30;;;24.08;;
14738;SDS011;7461;52.440;13.540;2023-01-09T06:13:23;25.80;;;23.50;;
14738;SDS011;7461;52.440;13.540;2023-01-09T06:15:51;25.33;;;23.05;;
14738;SDS011;7461;52.440;13.540;2023-01-09T06:18:18;27.85;;;25.35;;
14738;SDS011;7461;52.440;13.540;2023-01-09T06:20:45;25.80;;;23.55;;
14738;SDS011;7461;52.440;13.540;2023-01-09T06:23:14;26.35;;;24.02;;
14738;SDS011;7461;52.440;13.540;2023-01-09T06:25:41;26.92;;;24.77;;
14738;SDS011;7461;52.440;13.540;2023-01-09T06:28:09;25.58;;;23.58;;
14738;SDS011;7461;52.440;13.540;2023-01-09T06:30:36;29.48;;;26.88;;
14738;SDS011;7461;52.440;13.540;2023-01-09T06:33:03;30.40;;;27.70;;
14738;SDS011;7461;52.440;13.540;2023-01-09T06:35:30;25.52;;;23.42;;
14738;SDS011;7461;52.440;13.540;2023-01-09T06:37:57;24.67;;;22.65;;
14738;SDS011;7461;52.440;13.540;2023-01-09T06:40:28;27.08;;;24.75;;
14738;SDS011;7461;52.440;13.540;2023-01-09T06:42:56;26.42;;;24.15;;
14738;SDS011;7461;52.440;13.540;2023-01-09T06:45:23;26.60;;;24.45;;
14738;SDS011;7461;52.440;13.540;2023-01-09T06:47:50;26.55;;;24.48;;
14738;SDS011;7461;52.440;13.540;2023-01-09T06:50:17;25.70;;;23.55;;
14738;SDS011;7461;52.440;13.540;2023-01-09T06:52:44;28.10;;;25.80;;
14738;SDS011;7461;52.440;13.540;2023-01-09T06:55:12;26.17;;;24.02;;
14738;SDS011;7461;52.440;13.540;2023-01-09T06:57:42;26.65;;;24.30;;
14738;SDS011;7461;52.440;13.540;2023-01-09T07:00:09;25.55;;;23.38;;
14738;SDS011;7461;52.440;13.540;2023-01-09T07:02:37;24.73;;;22.70;;
14738;SDS011;7461;52.440;13.540;2023-01-09T07:07:39;27.98;;;25.58;;
14738;SDS011;7461;52.440;13.540;2023-01-09T07:10:07;25.58;;;23.48;;
14738;SDS011;7461;52.440;13.540;2023-01-09T07:12:36;31.80;;;29.00;;
14738;SDS011;7461;52.440;13.540;2023-01-09T07:15:06;30.67;;;28.13;;
14738;SDS011;7461;52.440;13.540;2023-01-09T07:17:36;29.27;;;26.45;;
14738;SDS011;7461;52.440;13.540;2023-01-09T07:20:03;28.77;;;26.48;;
14738;SDS011;7461;52.440;13.540;2023-01-09T07:22:31;28.33;;;25.65;;
14738;SDS011;7461;52.440;13.540;2023-01-09T07:24:59;25.77;;;23.52;;
14738;SDS011;7461;52.440;13.540;2023-01-09T07:27:26;25.80;;;23.48;;
14738;SDS011;7461;52.440;13.540;2023-01-09T07:29:54;29.40;;;26.63;;
14738;SDS011;7461;52.440;13.540;2023-01-09T07:32:23;28.33;;;25.90;;
14738;SDS011;7461;52.440;13.540;2023-01-09T07:34:50;26.13;;;23.88;;
14738;SDS011;7461;52.440;13.540;2023-01-09T07:37:17;28.88;;;26.08;;
14738;SDS011;7461;52.440;13.540;2023-01-09T07:39:45;25.42;;;23.08;;
14738;SDS011;7461;52.440;13.540;2023-01-09T07:42:12;27.77;;;25.20;;
14738;SDS011;7461;52.440;13.540;2023-01-09T07:44:42;27.45;;;25.13;;
14738;SDS011;7461;52.440;13.540;2023-01-09T07:47:10;26.02;;;23.70;;
14738;SDS011;7461;52.440;13.540;2023-01-09T07:49:42;28.52;;;25.77;;
14738;SDS011;7461;52.440;13.540;2023-01-09T07:52:22;25.52;;;23.25;;
14738;SDS011;7461;52.440;13.540;2023-01-09T07:54:50;27.58;;;24.83;;
14738;SDS011;7461;52.440;13.540;2023-01-09T07:57:17;27.77;;;25.35;;
14738;SDS011;7461;52.440;13.540;2023-01-09T07:59:45;26.30;;;23.70;;
14738;SDS011;7461;52.440;13.540;2023-01-09T08:02:12;28.02;;;25.60;;
14738;SDS011;7461;52.440;13.540;2023-01-09T08:04:41;27.13;;;24.63;;
14738;SDS011;7461;52.440;13.540;2023-01-09T08:07:08;28.55;;;25.77;;
14738;SDS011;7461;52.440;13.540;2023-01-09T08:09:36;31.63;;;28.65;;
14738;SDS011;7461;52.440;13.540;2023-01-09T08:12:05;28.25;;;25.45;;
14738;SDS011;7461;52.440;13.540;2023-01-09T08:14:33;26.70;;;24.25;;
14738;SDS011;7461;52.440;13.540;2023-01-09T08:17:01;29.75;;;26.98;;
14738;SDS011;7461;52.440;13.540;2023-01-09T08:19:28;30.13;;;27.35;;
14738;SDS011;7461;52.440;13.540;2023-01-09T08:21:57;28.95;;;26.27;;
14738;SDS011;7461;52.440;13.540;2023-01-09T08:24:24;29.38;;;26.63;;
14738;SDS011;7461;52.440;13.540;2023-01-09T08:26:52;28.73;;;26.35;;
14738;SDS011;7461;52.440;13.540;2023-01-09T08:29:19;29.75;;;27.00;;
14738;SDS011;7461;52.440;13.540;2023-01-09T08:31:47;28.63;;;26.17;;
14738;SDS011;7461;52.440;13.540;2023-01-09T08:34:16;30.00;;;27.20;;
14738;SDS011;7461;52.440;13.540;2023-01-09T08:36:45;28.20;;;25.90;;
14738;SDS011;7461;52.440;13.540;2023-01-09T08:39:15;27.73;;;24.92;;
14738;SDS011;7461;52.440;13.540;2023-01-09T08:41:43;30.92;;;28.02;;
14738;SDS011;7461;52.440;13.540;2023-01-09T08:44:27;29.13;;;26.67;;
14738;SDS011;7461;52.440;13.540;2023-01-09T08:47:16;30.63;;;27.60;;
14738;SDS011;7461;52.440;13.540;2023-01-09T08:49:49;29.60;;;26.75;;
14738;SDS011;7461;52.440;13.540;2023-01-09T08:52:16;30.02;;;26.98;;
14738;SDS011;7461;52.440;13.540;2023-01-09T08:54:45;31.35;;;28.65;;
14738;SDS011;7461;52.440;13.540;2023-01-09T08:57:15;26.38;;;24.20;;
14738;SDS011;7461;52.440;13.540;2023-01-09T08:59:43;30.55;;;28.10;;
14738;SDS011;7461;52.440;13.540;2023-01-09T09:02:11;28.58;;;25.90;;
14738;SDS011;7461;52.440;13.540;2023-01-09T09:04:38;28.38;;;25.83;;
14738;SDS011;7461;52.440;13.540;2023-01-09T09:07:06;28.20;;;25.65;;
14738;SDS011;7461;52.440;13.540;2023-01-09T09:09:33;30.60;;;27.70;;
14738;SDS011;7461;52.440;13.540;2023-01-09T09:12:02;30.55;;;27.45;;
14738;SDS011;7461;52.440;13.540;2023-01-09T09:14:30;28.45;;;25.73;;
14738;SDS011;7461;52.440;13.540;2023-01-09T09:17:15;32.72;;;29.77;;
14738;SDS011;7461;52.440;13.540;2023-01-09T09:19:44;28.67;;;25.95;;
14738;SDS011;7461;52.440;13.540;2023-01-09T09:22:13;30.23;;;27.25;;
14738;SDS011;7461;52.440;13.540;2023-01-09T09:24:41;31.48;;;28.67;;
14738;SDS011;7461;52.440;13.540;2023-01-09T09:27:14;30.67;;;27.80;;
14738;SDS011;7461;52.440;13.540;2023-01-09T09:29:42;30.70;;;27.95;;
14738;SDS011;7461;52.440;13.540;2023-01-09T09:32:09;28.80;;;26.42;;
14738;SDS011;7461;52.440;13.540;2023-01-09T09:34:37;30.65;;;27.73;;
14738;SDS011;7461;52.440;13.540;2023-01-09T09:37:04;29.58;;;26.60;;
14738;SDS011;7461;52.440;13.540;2023-01-09T09:39:33;29.10;;;26.20;;
14738;SDS011;7461;52.440;13.540;2023-01-09T09:45:07;28.23;;;25.58;;
14738;SDS011;7461;52.440;13.540;2023-01-09T09:47:43;29.02;;;26.25;;
14738;SDS011;7461;52.440;13.540;2023-01-09T09:50:25;27.60;;;24.67;;
14738;SDS011;7461;52.440;13.540;2023-01-09T09:52:55;27.25;;;24.75;;
14738;SDS011;7461;52.440;13.540;2023-01-09T09:55:29;28.67;;;25.77;;
14738;SDS011;7461;52.440;13.540;2023-01-09T09:57:59;29.27;;;26.67;;
14738;SDS011;7461;52.440;13.540;2023-01-09T10:00:29;27.00;;;24.58;;
14738;SDS011;7461;52.440;13.540;2023-01-09T10:02:57;28.85;;;26.15;;
14738;SDS011;7461;52.440;13.540;2023-01-09T10:05:28;30.23;;;27.23;;
14738;SDS011;7461;52.440;13.540;2023-01-09T10:08:10;28.00;;;25.60;;
14738;SDS011;7461;52.440;13.540;2023-01-09T10:10:41;26.52;;;24.17;;
14738;SDS011;7461;52.440;13.540;2023-01-09T10:13:11;29.25;;;26.73;;
14738;SDS011;7461;52.440;13.540;2023-01-09T10:16:01;27.15;;;24.63;;
14738;SDS011;7461;52.440;13.540;2023-01-09T10:18:33;25.95;;;23.65;;
14738;SDS011;7461;52.440;13.540;2023-01-09T10:21:04;26.92;;;24.40;;
14738;SDS011;7461;52.440;13.540;2023-01-09T10:26:23;27.55;;;23.70;;
14738;SDS011;7461;52.440;13.540;2023-01-09T10:28:57;24.90;;;22.70;;
14738;SDS011;7461;52.440;13.540;2023-01-09T10:31:29;26.92;;;24.60;;
14738;SDS011;7461;52.440;13.540;2023-01-09T10:34:01;25.75;;;23.55;;
14738;SDS011;7461;52.440;13.540;2023-01-09T10:36:35;25.23;;;23.17;;
14738;SDS011;7461;52.440;13.540;2023-01-09T10:39:08;24.20;;;22.02;;
14738;SDS011;7461;52.440;13.540;2023-01-09T10:41:37;24.33;;;22.23;;
14738;SDS011;7461;52.440;13.540;2023-01-09T10:44:09;23.88;;;21.58;;
14738;SDS011;7461;52.440;13.540;2023-01-09T10:46:42;22.30;;;19.98;;
14738;SDS011;7461;52.440;13.540;2023-01-09T10:49:12;23.40;;;21.17;;
14738;SDS011;7461;52.440;13.540;2023-01-09T10:51:43;23.23;;;21.33;;
14738;SDS011;7461;52.440;13.540;2023-01-09T10:54:13;20.25;;;18.48;;
14738;SDS011;7461;52.440;13.540;2023-01-09T10:56:43;23.02;;;21.00;;
14738;SDS011;7461;52.440;13.540;2023-01-09T10:59:12;18.83;;;17.02;;
14738;SDS011;7461;52.440;13.540;2023-01-09T11:01:39;19.13;;;17.58;;
14738;SDS011;7461;52.440;13.540;2023-01-09T11:04:10;19.90;;;18.20;;
14738;SDS011;7461;52.440;13.540;2023-01-09T11:06:44;19.25;;;17.48;;
14738;SDS011;7461;52.440;13.540;2023-01-09T11:09:13;20.30;;;18.40;;
14738;SDS011;7461;52.440;13.540;2023-01-09T11:11:41;18.25;;;16.85;;
14738;SDS011;7461;52.440;13.540;2023-01-09T11:14:12;18.65;;;17.08;;
14738;SDS011;7461;52.440;13.540;2023-01-09T11:16:51;17.48;;;16.05;;
14738;SDS011;7461;52.440;13.540;2023-01-09T11:19:20;19.50;;;17.90;;
14738;SDS011;7461;52.440;13.540;2023-01-09T11:21:48;18.40;;;16.85;;
14738;SDS011;7461;52.440;13.540;2023-01-09T11:24:21;16.80;;;15.35;;
14738;SDS011;7461;52.440;13.540;2023-01-09T11:26:52;17.40;;;15.75;;
14738;SDS011;7461;52.440;13.540;2023-01-09T11:29:20;18.35;;;16.75;;
14738;SDS011;7461;52.440;13.540;2023-01-09T11:31:49;16.73;;;15.43;;
14738;SDS011;7461;52.440;13.540;2023-01-09T11:34:18;15.05;;;13.90;;
14738;SDS011;7461;52.440;13.540;2023-01-09T11:36:48;16.60;;;15.40;;
14738;SDS011;7461;52.440;13.540;2023-01-09T11:39:18;16.15;;;14.70;;
14738;SDS011;7461;52.440;13.540;2023-01-09T11:41:50;13.20;;;12.02;;
14738;SDS011;7461;52.440;13.540;2023-01-09T11:44:18;16.40;;;13.07;;
14738;SDS011;7461;52.440;13.540;2023-01-09T11:46:46;13.95;;;12.82;;
14738;SDS011;7461;52.440;13.540;2023-01-09T11:49:23;14.60;;;13.27;;
14738;SDS011;7461;52.440;13.540;2023-01-09T11:54:34;14.02;;;12.70;;
14738;SDS011;7461;52.440;13.540;2023-01-09T11:57:03;12.18;;;11.35;;
14738;SDS011;7461;52.440;13.540;2023-01-09T11:59:30;14.15;;;13.05;;
14738;SDS011;7461;52.440;13.540;2023-01-09T12:02:21;13.60;;;12.60;;
14738;SDS011;7461;52.440;13.540;2023-01-09T12:04:53;12.80;;;11.80;;
14738;SDS011;7461;52.440;13.540;2023-01-09T12:10:08;10.43;;;9.73;;
14738;SDS011;7461;52.440;13.540;2023-01-09T12:12:44;12.02;;;11.23;;
14738;SDS011;7461;52.440;13.540;2023-01-09T12:15:19;9.77;;;8.98;;
14738;SDS011;7461;52.440;13.540;2023-01-09T12:17:57;11.00;;;9.07;;
14738;SDS011;7461;52.440;13.540;2023-01-09T12:20:39;9.55;;;8.30;;
14738;SDS011;7461;52.440;13.540;2023-01-09T12:23:18;10.30;;;9.38;;
14738;SDS011;7461;52.440;13.540;2023-01-09T12:25:51;7.80;;;7.18;;
14738;SDS011;7461;52.440;13.540;2023-01-09T12:28:37;7.43;;;7.03;;
14738;SDS011;7461;52.440;13.540;2023-01-09T12:31:12;7.85;;;7.35;;
14738;SDS011;7461;52.440;13.540;2023-01-09T12:33:43;7.47;;;6.97;;
14738;SDS011;7461;52.440;13.540;2023-01-09T12:36:15;8.52;;;7.18;;
14738;SDS011;7461;52.440;13.540;2023-01-09T12:38:46;7.13;;;6.60;;
14738;SDS011;7461;52.440;13.540;2023-01-09T12:44:16;8.88;;;8.02;;
14738;SDS011;7461;52.440;13.540;2023-01-09T12:46:46;6.85;;;6.38;;
14738;SDS011;7461;52.440;13.540;2023-01-09T12:49:25;5.88;;;5.47;;
14738;SDS011;7461;52.440;13.540;2023-01-09T12:51:56;6.78;;;6.28;;
14738;SDS011;7461;52.440;13.540;2023-01-09T12:54:27;7.47;;;6.85;;
14738;SDS011;7461;52.440;13.540;2023-01-09T12:56:59;6.85;;;5.53;;
14738;SDS011;7461;52.440;13.540;2023-01-09T12:59:30;5.40;;;5.00;;
14738;SDS011;7461;52.440;13.540;2023-01-09T13:02:00;6.38;;;5.95;;
14738;SDS011;7461;52.440;13.540;2023-01-09T13:04:30;5.50;;;5.00;;
14738;SDS011;7461;52.440;13.540;2023-01-09T13:07:00;8.05;;;4.75;;
14738;SDS011;7461;52.440;13.540;2023-01-09T13:09:31;6.68;;;6.07;;
14738;SDS011;7461;52.440;13.540;2023-01-09T13:12:06;10.15;;;5.55;;
14738;SDS011;7461;52.440;13.540;2023-01-09T13:14:43;6.43;;;5.93;;
14738;SDS011;7461;52.440;13.540;2023-01-09T13:17:13;4.95;;;4.65;;
14738;SDS011;7461;52.440;13.540;2023-01-09T13:19:42;5.10;;;4.70;;
14738;SDS011;7461;52.440;13.540;2023-01-09T13:22:10;5.05;;;4.55;;
14738;SDS011;7461;52.440;13.540;2023-01-09T13:24:39;5.45;;;5.03;;
14738;SDS011;7461;52.440;13.540;2023-01-09T13:27:10;5.55;;;3.80;;
14738;SDS011;7461;52.440;13.540;2023-01-09T13:29:41;4.45;;;4.05;;
14738;SDS011;7461;52.440;13.540;2023-01-09T13:32:13;5.35;;;3.58;;
14738;SDS011;7461;52.440;13.540;2023-01-09T13:34:43;4.53;;;4.10;;
14738;SDS011;7461;52.440;13.540;2023-01-09T13:37:18;3.42;;;3.22;;
14738;SDS011;7461;52.440;13.540;2023-01-09T13:39:50;4.15;;;3.03;;
14738;SDS011;7461;52.440;13.540;2023-01-09T13:42:20;3.40;;;3.10;;
14738;SDS011;7461;52.440;13.540;2023-01-09T13:45:18;4.10;;;3.35;;
14738;SDS011;7461;52.440;13.540;2023-01-09T13:47:46;4.53;;;4.15;;
14738;SDS011;7461;52.440;13.540;2023-01-09T13:50:35;3.75;;;3.50;;
14738;SDS011;7461;52.440;13.540;2023-01-09T13:56:02;3.10;;;2.80;;
14738;SDS011;7461;52.440;13.540;2023-01-09T13:58:30;3.85;;;3.55;;
14738;SDS011;7461;52.440;13.540;2023-01-09T14:09:42;3.92;;;3.55;;
14738;SDS011;7461;52.440;13.540;2023-01-09T14:12:11;3.92;;;3.63;;
14738;SDS011;7461;52.440;13.540;2023-01-09T14:14:42;4.10;;;2.95;;
14738;SDS011;7461;52.440;13.540;2023-01-09T14:17:14;4.88;;;4.20;;
14738;SDS011;7461;52.440;13.540;2023-01-09T14:19:42;4.55;;;4.13;;
14738;SDS011;7461;52.440;13.540;2023-01-09T14:22:20;4.93;;;4.53;;
14738;SDS011;7461;52.440;13.540;2023-01-09T14:24:50;5.55;;;4.97;;
14738;SDS011;7461;52.440;13.540;2023-01-09T14:30:22;4.60;;;4.18;;
14738;SDS011;7461;52.440;13.540;2023-01-09T14:32:55;4.18;;;3.78;;
14738;SDS011;7461;52.440;13.540;2023-01-09T14:35:27;4.43;;;4.03;;
14738;SDS011;7461;52.440;13.540;2023-01-09T14:37:58;5.57;;;4.13;;
14738;SDS011;7461;52.440;13.540;2023-01-09T14:40:29;6.03;;;4.20;;
14738;SDS011;7461;52.440;13.540;2023-01-09T14:42:58;8.60;;;5.00;;
14738;SDS011;7461;52.440;13.540;2023-01-09T14:45:28;4.53;;;4.05;;
14738;SDS011;7461;52.440;13.540;2023-01-09T14:47:56;8.18;;;3.97;;
14738;SDS011;7461;52.440;13.540;2023-01-09T14:50:27;4.60;;;4.30;;
14738;SDS011;7461;52.440;13.540;2023-01-09T14:52:58;3.67;;;3.42;;
14738;SDS011;7461;52.440;13.540;2023-01-09T14:55:30;4.75;;;4.35;;
14738;SDS011;7461;52.440;13.540;2023-01-09T14:58:08;4.05;;;3.67;;
14738;SDS011;7461;52.440;13.540;2023-01-09T15:00:36;4.47;;;4.18;;
14738;SDS011;7461;52.440;13.540;2023-01-09T15:03:03;4.00;;;3.75;;
14738;SDS011;7461;52.440;13.540;2023-01-09T15:05:30;4.10;;;3.70;;
14738;SDS011;7461;52.440;13.540;2023-01-09T15:07:58;3.97;;;3.67;;
14738;SDS011;7461;52.440;13.540;2023-01-09T15:10:29;5.60;;;5.13;;
14738;SDS011;7461;52.440;13.540;2023-01-09T15:12:58;8.77;;;5.28;;